createdAt,value
2017-04-16T00:00:26.517Z,74.96
2017-04-16T00:01:07.018Z,74.77
2017-04-16T00:01:47.670Z,74.87
2017-04-16T00:02:28.213Z,74.77
2017-04-16T00:03:08.816Z,75.24
2017-04-16T00:03:49.376Z,74.96
2017-04-16T00:04:29.961Z,74.77
2017-04-16T00:05:10.569Z,74.96
2017-04-16T00:05:51.122Z,74.96
2017-04-16T00:06:31.678Z,75.15
2017-04-16T00:07:12.224Z,75.62
2017-04-16T00:07:52.771Z,75.43
2017-04-16T00:08:33.336Z,75.53
2017-04-16T00:09:13.894Z,75.53
2017-04-16T00:09:54.432Z,75.43
2017-04-16T00:10:34.956Z,75.34
2017-04-16T00:11:15.534Z,75.43
2017-04-16T00:11:56.177Z,75.43
2017-04-16T00:12:36.705Z,75.24
2017-04-16T00:13:17.311Z,75.53
2017-04-16T00:13:57.887Z,75.53
2017-04-16T00:14:38.540Z,75.24
2017-04-16T00:15:19.073Z,75.24
2017-04-16T00:15:59.709Z,75.24
2017-04-16T00:16:40.289Z,75.43
2017-04-16T00:17:20.935Z,75.34
2017-04-16T00:18:01.522Z,75.43
2017-04-16T00:18:42.113Z,75.53
2017-04-16T00:19:22.672Z,75.53
2017-04-16T00:20:03.269Z,75.62
2017-04-16T00:20:43.865Z,75.62
2017-04-16T00:21:24.415Z,75.53
2017-04-16T00:22:04.952Z,75.72
2017-04-16T00:22:45.536Z,75.24
2017-04-16T00:23:26.181Z,75.53
2017-04-16T00:24:06.835Z,75.34
2017-04-16T00:24:47.377Z,75.43
2017-04-16T00:25:27.934Z,75.24
2017-04-16T00:26:08.529Z,75.43
2017-04-16T00:26:49.130Z,75.91
2017-04-16T00:27:29.666Z,75.91
2017-04-16T00:28:10.255Z,75.91
2017-04-16T00:28:51.544Z,75.53
2017-04-16T00:29:32.148Z,75.62
2017-04-16T00:30:12.684Z,75.81
2017-04-16T00:30:53.256Z,75.62
2017-04-16T00:31:33.846Z,75.43
2017-04-16T00:32:14.437Z,75.81
2017-04-16T00:32:54.954Z,75.91
2017-04-16T00:33:35.563Z,76.01
2017-04-16T00:34:16.114Z,76.01
2017-04-16T00:34:56.660Z,76.29
2017-04-16T00:35:37.219Z,76.1
2017-04-16T00:36:17.749Z,75.91
2017-04-16T00:36:58.328Z,75.91
2017-04-16T00:37:38.850Z,75.72
2017-04-16T00:38:19.408Z,76.2
2017-04-16T00:39:00.042Z,75.91
2017-04-16T00:39:40.606Z,76.2
2017-04-16T00:40:21.162Z,76.1
2017-04-16T00:41:01.693Z,76.01
2017-04-16T00:41:42.238Z,76.1
2017-04-16T00:42:22.813Z,76.2
2017-04-16T00:43:03.457Z,76.2
2017-04-16T00:43:43.996Z,76.01
2017-04-16T00:44:24.651Z,76.39
2017-04-16T00:45:05.313Z,76.1
2017-04-16T00:45:45.960Z,76.1
2017-04-16T00:46:26.508Z,76.57
2017-04-16T00:47:07.059Z,76.48
2017-04-16T00:47:47.606Z,76.57
2017-04-16T00:48:28.162Z,76.29
2017-04-16T00:49:08.824Z,76.67
2017-04-16T00:49:49.362Z,76.48
2017-04-16T00:50:29.945Z,76.76
2017-04-16T00:51:10.476Z,76.76
2017-04-16T00:51:51.019Z,76.76
2017-04-16T00:52:31.676Z,76.76
2017-04-16T00:53:12.339Z,76.76
2017-04-16T00:53:52.890Z,76.57
2017-04-16T00:54:33.425Z,76.1
2017-04-16T00:55:15.092Z,76.1
2017-04-16T00:55:55.657Z,76.48
2017-04-16T00:56:36.170Z,76.57
2017-04-16T00:57:16.759Z,76.48
2017-04-16T00:57:57.382Z,76.67
2017-04-16T00:58:37.926Z,76.39
2017-04-16T00:59:18.521Z,76.57
2017-04-16T00:59:59.270Z,76.39
2017-04-16T01:00:39.775Z,76.29
2017-04-16T01:01:20.370Z,76.39
2017-04-16T01:02:00.919Z,76.29
2017-04-16T01:02:41.450Z,76.57
2017-04-16T01:03:22.053Z,76.67
2017-04-16T01:04:02.688Z,76.76
2017-04-16T01:04:43.376Z,76.48
2017-04-16T01:05:23.998Z,76.57
2017-04-16T01:06:04.695Z,76.86
2017-04-16T01:06:45.317Z,76.57
2017-04-16T01:07:25.919Z,76.86
2017-04-16T01:08:06.495Z,76.67
2017-04-16T01:08:47.145Z,77.33
2017-04-16T01:09:27.649Z,77.05
2017-04-16T01:10:08.228Z,76.86
2017-04-16T01:10:48.812Z,77.14
2017-04-16T01:11:29.303Z,76.86
2017-04-16T01:12:09.930Z,77.14
2017-04-16T01:12:50.546Z,77.14
2017-04-16T01:13:31.082Z,77.43
2017-04-16T01:14:11.736Z,77.05
2017-04-16T01:14:52.440Z,77.52
2017-04-16T01:15:33.058Z,77.43
2017-04-16T01:16:13.567Z,77.48
2017-04-16T01:16:54.261Z,77.58
2017-04-16T01:17:34.870Z,77.67
2017-04-16T01:18:15.448Z,77.67
2017-04-16T01:18:55.988Z,77.77
2017-04-16T01:19:36.589Z,78.24
2017-04-16T01:20:17.221Z,78.15
2017-04-16T01:20:57.748Z,78.34
2017-04-16T01:21:38.339Z,78.24
2017-04-16T01:22:18.957Z,78.15
2017-04-16T01:22:59.480Z,78.15
2017-04-16T01:23:40.149Z,78.05
2017-04-16T01:24:20.743Z,78.43
2017-04-16T01:25:01.304Z,78.43
2017-04-16T01:25:41.960Z,78.43
2017-04-16T01:26:22.509Z,78.62
2017-04-16T01:27:03.068Z,78.24
2017-04-16T01:27:44.028Z,78.15
2017-04-16T01:28:24.663Z,78.24
2017-04-16T01:29:05.242Z,78.62
2017-04-16T01:29:45.849Z,79
2017-04-16T01:30:26.376Z,78.81
2017-04-16T01:31:08.003Z,78.81
2017-04-16T01:31:48.756Z,78.62
2017-04-16T01:32:29.387Z,78.81
2017-04-16T01:33:09.988Z,78.81
2017-04-16T01:33:50.594Z,79
2017-04-16T01:34:31.268Z,78.81
2017-04-16T01:35:11.818Z,79
2017-04-16T01:35:52.359Z,79.19
2017-04-16T01:36:32.945Z,79
2017-04-16T01:37:13.572Z,78.91
2017-04-16T01:37:54.228Z,79.19
2017-04-16T01:38:34.876Z,79
2017-04-16T01:39:15.456Z,78.91
2017-04-16T01:39:56.082Z,79
2017-04-16T01:40:37.441Z,79.19
2017-04-16T01:41:18.023Z,79.47
2017-04-16T01:41:58.597Z,79
2017-04-16T01:42:39.183Z,78.81
2017-04-16T01:43:19.770Z,79.38
2017-04-16T01:44:00.402Z,79.38
2017-04-16T01:44:40.953Z,79.38
2017-04-16T01:45:21.529Z,79.47
2017-04-16T01:46:02.172Z,78.91
2017-04-16T01:46:42.810Z,79
2017-04-16T01:47:23.367Z,79.47
2017-04-16T01:48:04.038Z,79.66
2017-04-16T01:48:44.670Z,79.57
2017-04-16T01:49:25.211Z,79.47
2017-04-16T01:50:05.762Z,79.57
2017-04-16T01:50:46.306Z,79.47
2017-04-16T01:51:26.868Z,79.57
2017-04-16T01:52:07.511Z,79.57
2017-04-16T01:52:48.047Z,79.57
2017-04-16T01:53:28.596Z,79.47
2017-04-16T01:54:09.209Z,79.57
2017-04-16T01:54:49.720Z,79.57
2017-04-16T01:55:30.287Z,79.47
2017-04-16T01:56:10.930Z,79.38
2017-04-16T01:56:51.445Z,79.28
2017-04-16T01:57:33.056Z,79.47
2017-04-16T01:58:13.590Z,79.38
2017-04-16T01:58:54.109Z,79.38
2017-04-16T01:59:34.691Z,79.38
2017-04-16T02:00:15.245Z,79.95
2017-04-16T02:00:55.845Z,79.47
2017-04-16T02:01:36.448Z,79.76
2017-04-16T02:02:17.006Z,80.24
2017-04-16T02:02:57.555Z,80.04
2017-04-16T02:03:38.195Z,80.24
2017-04-16T02:04:18.737Z,79.76
2017-04-16T02:04:59.262Z,80.04
2017-04-16T02:05:39.855Z,80.04
2017-04-16T02:06:20.487Z,80.14
2017-04-16T02:07:01.042Z,80.14
2017-04-16T02:07:41.595Z,80.33
2017-04-16T02:08:22.168Z,80.52
2017-04-16T02:09:02.714Z,80.24
2017-04-16T02:09:43.267Z,80.33
2017-04-16T02:10:23.830Z,80.52
2017-04-16T02:11:04.370Z,80.33
2017-04-16T02:11:44.920Z,80.9
2017-04-16T02:12:25.579Z,80.62
2017-04-16T02:13:06.129Z,80.52
2017-04-16T02:13:46.715Z,80.62
2017-04-16T02:14:28.275Z,80.24
2017-04-16T02:15:08.849Z,80.43
2017-04-16T02:15:49.459Z,80.43
2017-04-16T02:16:29.974Z,80.99
2017-04-16T02:17:10.599Z,81.09
2017-04-16T02:17:51.163Z,80.8
2017-04-16T02:18:31.763Z,80.8
2017-04-16T02:19:12.280Z,80.71
2017-04-16T02:19:52.884Z,81.09
2017-04-16T02:20:33.464Z,80.99
2017-04-16T02:21:14.056Z,80.71
2017-04-16T02:21:54.588Z,81.09
2017-04-16T02:22:35.183Z,80.71
2017-04-16T02:23:15.785Z,81.27
2017-04-16T02:23:56.385Z,81.66
2017-04-16T02:24:36.912Z,81.18
2017-04-16T02:25:17.491Z,81.37
2017-04-16T02:25:58.042Z,81.47
2017-04-16T02:26:38.592Z,81.09
2017-04-16T02:27:19.142Z,81.43
2017-04-16T02:27:59.713Z,81.71
2017-04-16T02:28:40.640Z,81.52
2017-04-16T02:29:21.274Z,81.62
2017-04-16T02:30:01.806Z,81.56
2017-04-16T02:30:42.400Z,82.09
2017-04-16T02:31:23.039Z,81.94
2017-04-16T02:32:03.553Z,81.94
2017-04-16T02:32:44.157Z,82.04
2017-04-16T02:33:24.702Z,81.62
2017-04-16T02:34:05.202Z,82.04
2017-04-16T02:34:45.792Z,81.9
2017-04-16T02:35:26.388Z,81.71
2017-04-16T02:36:06.985Z,82.28
2017-04-16T02:36:47.537Z,82.09
2017-04-16T02:37:28.098Z,81.81
2017-04-16T02:38:08.686Z,82.37
2017-04-16T02:38:49.292Z,82.18
2017-04-16T02:39:29.855Z,82.28
2017-04-16T02:40:10.412Z,81.99
2017-04-16T02:40:51.005Z,81.99
2017-04-16T02:41:31.625Z,82.18
2017-04-16T02:42:12.178Z,82.28
2017-04-16T02:42:52.759Z,82.37
2017-04-16T02:43:33.385Z,82.56
2017-04-16T02:44:13.955Z,82.47
2017-04-16T02:44:54.563Z,82.37
2017-04-16T02:45:35.066Z,82.28
2017-04-16T02:46:15.675Z,82.75
2017-04-16T02:46:56.268Z,82.66
2017-04-16T02:47:36.862Z,82.47
2017-04-16T02:48:17.370Z,82.47
2017-04-16T02:48:58.004Z,82.75
2017-04-16T02:49:38.631Z,82.47
2017-04-16T02:50:19.151Z,82.56
2017-04-16T02:50:59.780Z,82.94
2017-04-16T02:51:40.264Z,82.75
2017-04-16T02:52:20.781Z,83.04
2017-04-16T02:53:01.377Z,83.04
2017-04-16T02:53:41.926Z,82.94
2017-04-16T02:54:22.462Z,83.04
2017-04-16T02:55:03.049Z,83.23
2017-04-16T02:55:43.620Z,83.04
2017-04-16T02:56:24.215Z,82.94
2017-04-16T02:57:04.740Z,83.42
2017-04-16T02:57:45.339Z,83.42
2017-04-16T02:58:25.940Z,83.32
2017-04-16T02:59:06.537Z,83.23
2017-04-16T02:59:47.051Z,82.94
2017-04-16T03:00:27.643Z,83.13
2017-04-16T03:01:08.866Z,83.7
2017-04-16T03:01:49.486Z,83.61
2017-04-16T03:02:30.015Z,83.51
2017-04-16T03:03:10.560Z,83.23
2017-04-16T03:03:51.126Z,83.51
2017-04-16T03:04:31.677Z,83.8
2017-04-16T03:05:12.235Z,83.61
2017-04-16T03:05:52.777Z,83.61
2017-04-16T03:06:33.331Z,84.17
2017-04-16T03:07:13.867Z,84.27
2017-04-16T03:07:54.429Z,84.17
2017-04-16T03:08:34.973Z,84.27
2017-04-16T03:09:15.532Z,84.17
2017-04-16T03:09:56.073Z,84.36
2017-04-16T03:10:36.620Z,84.17
2017-04-16T03:11:17.191Z,83.89
2017-04-16T03:11:57.733Z,83.98
2017-04-16T03:12:38.278Z,84.46
2017-04-16T03:13:18.847Z,84.27
2017-04-16T03:13:59.387Z,84.36
2017-04-16T03:14:39.979Z,84.27
2017-04-16T03:15:20.558Z,84.27
2017-04-16T03:16:01.075Z,84.08
2017-04-16T03:16:41.700Z,84.84
2017-04-16T03:17:22.281Z,84.65
2017-04-16T03:18:02.873Z,84.65
2017-04-16T03:18:43.386Z,84.23
2017-04-16T03:19:24.774Z,84.42
2017-04-16T03:20:05.341Z,84.08
2017-04-16T03:20:45.870Z,84.84
2017-04-16T03:21:26.446Z,84.65
2017-04-16T03:22:06.998Z,85.13
2017-04-16T03:22:47.522Z,85.03
2017-04-16T03:23:28.110Z,85.03
2017-04-16T03:24:08.640Z,85.13
2017-04-16T03:24:49.169Z,84.99
2017-04-16T03:25:29.764Z,85.03
2017-04-16T03:26:10.311Z,84.89
2017-04-16T03:26:50.866Z,84.84
2017-04-16T03:27:31.443Z,84.89
2017-04-16T03:28:12.059Z,85.08
2017-04-16T03:28:52.603Z,84.84
2017-04-16T03:29:33.169Z,84.8
2017-04-16T03:30:13.720Z,84.89
2017-04-16T03:30:54.247Z,85.27
2017-04-16T03:31:34.816Z,85.08
2017-04-16T03:32:15.360Z,85.13
2017-04-16T03:32:55.898Z,84.74
2017-04-16T03:33:36.485Z,84.8
2017-04-16T03:34:17.065Z,85.08
2017-04-16T03:34:57.652Z,85.27
2017-04-16T03:35:38.175Z,84.99
2017-04-16T03:36:18.803Z,85.13
2017-04-16T03:36:59.370Z,85.08
2017-04-16T03:37:39.970Z,85.08
2017-04-16T03:38:20.474Z,85.65
2017-04-16T03:39:01.073Z,85.65
2017-04-16T03:39:41.619Z,85.74
2017-04-16T03:40:22.175Z,85.65
2017-04-16T03:41:02.716Z,85.46
2017-04-16T03:41:43.269Z,85.46
2017-04-16T03:42:23.853Z,85.55
2017-04-16T03:43:04.478Z,85.27
2017-04-16T03:43:45.057Z,85.65
2017-04-16T03:44:25.686Z,85.22
2017-04-16T03:45:06.213Z,85.17
2017-04-16T03:45:46.810Z,85.27
2017-04-16T03:46:27.455Z,85.36
2017-04-16T03:47:07.967Z,85.27
2017-04-16T03:47:48.536Z,85.55
2017-04-16T03:48:29.082Z,85.08
2017-04-16T03:49:09.632Z,85.46
2017-04-16T03:49:50.209Z,85.36
2017-04-16T03:50:31.784Z,85.84
2017-04-16T03:51:12.330Z,85.36
2017-04-16T03:51:52.863Z,85.17
2017-04-16T03:52:33.443Z,85.84
2017-04-16T03:53:14.086Z,85.65
2017-04-16T03:53:54.638Z,85.65
2017-04-16T03:54:35.188Z,85.55
2017-04-16T03:55:15.709Z,85.65
2017-04-16T03:55:56.259Z,85.93
2017-04-16T03:56:36.838Z,86.03
2017-04-16T03:57:17.395Z,86.03
2017-04-16T03:57:57.936Z,85.93
2017-04-16T03:58:38.487Z,86.12
2017-04-16T03:59:19.044Z,86.12
2017-04-16T03:59:59.615Z,86.12
2017-04-16T04:00:40.218Z,86.03
2017-04-16T04:01:20.786Z,85.93
2017-04-16T04:02:01.343Z,86.03
2017-04-16T04:02:41.876Z,85.93
2017-04-16T04:03:22.435Z,85.93
2017-04-16T04:04:02.977Z,86.03
2017-04-16T04:04:43.575Z,86.03
2017-04-16T04:05:24.197Z,86.03
2017-04-16T04:06:04.748Z,86.03
2017-04-16T04:06:45.293Z,85.84
2017-04-16T04:07:25.898Z,85.93
2017-04-16T04:08:06.539Z,85.84
2017-04-16T04:08:48.054Z,85.84
2017-04-16T04:09:28.640Z,85.84
2017-04-16T04:10:09.253Z,86.22
2017-04-16T04:10:49.835Z,85.93
2017-04-16T04:11:30.365Z,85.93
2017-04-16T04:12:10.948Z,85.93
2017-04-16T04:12:52.500Z,85.93
2017-04-16T04:13:33.054Z,86.22
2017-04-16T04:14:13.589Z,86.03
2017-04-16T04:14:54.146Z,86.12
2017-04-16T04:15:34.704Z,85.93
2017-04-16T04:16:15.258Z,86.41
2017-04-16T04:16:55.806Z,86.31
2017-04-16T04:17:36.417Z,86.41
2017-04-16T04:18:17.014Z,86.03
2017-04-16T04:18:57.562Z,86.31
2017-04-16T04:19:38.141Z,86.31
2017-04-16T04:20:18.744Z,86.03
2017-04-16T04:20:59.262Z,86.12
2017-04-16T04:21:39.875Z,86.22
2017-04-16T04:22:20.456Z,86.22
2017-04-16T04:23:01.049Z,86.12
2017-04-16T04:23:41.570Z,86.22
2017-04-16T04:24:22.170Z,86.22
2017-04-16T04:25:02.718Z,86.31
2017-04-16T04:25:43.266Z,86.22
2017-04-16T04:26:23.818Z,86.31
2017-04-16T04:27:04.383Z,86.31
2017-04-16T04:27:44.907Z,86.22
2017-04-16T04:28:25.479Z,86.12
2017-04-16T04:29:06.028Z,86.31
2017-04-16T04:29:46.615Z,86.22
2017-04-16T04:30:27.207Z,86.22
2017-04-16T04:31:07.719Z,86.22
2017-04-16T04:31:48.326Z,86.31
2017-04-16T04:32:28.922Z,86.22
2017-04-16T04:33:09.512Z,86.22
2017-04-16T04:33:50.029Z,86.22
2017-04-16T04:34:30.629Z,86.31
2017-04-16T04:35:11.214Z,86.22
2017-04-16T04:35:51.816Z,86.31
2017-04-16T04:36:32.373Z,86.22
2017-04-16T04:37:12.924Z,86.22
2017-04-16T04:37:53.521Z,86.22
2017-04-16T04:38:34.113Z,86.31
2017-04-16T04:39:14.653Z,86.31
2017-04-16T04:39:55.218Z,86.35
2017-04-16T04:40:35.779Z,86.31
2017-04-16T04:41:16.339Z,86.22
2017-04-16T04:41:56.896Z,86.22
2017-04-16T04:42:37.438Z,86.35
2017-04-16T04:43:17.979Z,86.31
2017-04-16T04:43:58.540Z,86.16
2017-04-16T04:44:39.099Z,86.22
2017-04-16T04:45:19.644Z,86.35
2017-04-16T04:46:00.193Z,86.16
2017-04-16T04:46:40.731Z,86.31
2017-04-16T04:47:21.295Z,86.16
2017-04-16T04:48:01.844Z,86.26
2017-04-16T04:48:42.395Z,86.22
2017-04-16T04:49:22.964Z,86.35
2017-04-16T04:50:03.501Z,86.07
2017-04-16T04:50:44.047Z,86.26
2017-04-16T04:51:24.599Z,86.16
2017-04-16T04:52:05.151Z,86.07
2017-04-16T04:52:46.732Z,86.16
2017-04-16T04:53:27.277Z,86.07
2017-04-16T04:54:07.839Z,86.07
2017-04-16T04:54:48.378Z,86.07
2017-04-16T04:55:28.927Z,86.07
2017-04-16T04:56:09.479Z,86.35
2017-04-16T04:56:50.049Z,86.07
2017-04-16T04:57:30.595Z,85.97
2017-04-16T04:58:12.163Z,86.16
2017-04-16T04:58:52.701Z,86.26
2017-04-16T04:59:33.298Z,86.26
2017-04-16T05:00:13.954Z,85.97
2017-04-16T05:00:54.494Z,86.07
2017-04-16T05:01:35.050Z,85.88
2017-04-16T05:02:16.686Z,86.07
2017-04-16T05:02:57.287Z,85.88
2017-04-16T05:03:37.834Z,85.97
2017-04-16T05:04:18.391Z,86.07
2017-04-16T05:04:58.943Z,86.16
2017-04-16T05:05:39.492Z,86.26
2017-04-16T05:06:20.044Z,86.16
2017-04-16T05:07:00.597Z,86.26
2017-04-16T05:07:41.157Z,86.07
2017-04-16T05:08:21.755Z,85.69
2017-04-16T05:09:02.377Z,85.69
2017-04-16T05:09:43.022Z,85.88
2017-04-16T05:10:23.548Z,85.41
2017-04-16T05:11:04.102Z,85.6
2017-04-16T05:11:46.714Z,85.6
2017-04-16T05:12:27.290Z,85.41
2017-04-16T05:13:07.904Z,85.5
2017-04-16T05:13:48.482Z,85.74
2017-04-16T05:14:29.060Z,85.41
2017-04-16T05:15:10.664Z,85.31
2017-04-16T05:15:51.194Z,85.5
2017-04-16T05:16:32.847Z,85.6
2017-04-16T05:17:13.435Z,85.13
2017-04-16T05:17:54.000Z,85.45
2017-04-16T05:18:34.514Z,85.17
2017-04-16T05:19:15.110Z,85.17
2017-04-16T05:19:55.669Z,85.17
2017-04-16T05:20:36.210Z,84.98
2017-04-16T05:21:17.806Z,85.07
2017-04-16T05:22:00.383Z,84.98
2017-04-16T05:22:40.972Z,84.88
2017-04-16T05:23:21.587Z,84.78
2017-04-16T05:24:02.115Z,84.88
2017-04-16T05:24:42.728Z,85.17
2017-04-16T05:25:23.241Z,85.17
2017-04-16T05:26:03.783Z,84.98
2017-04-16T05:26:45.353Z,85.17
2017-04-16T05:27:25.882Z,84.5
2017-04-16T05:28:07.497Z,84.41
2017-04-16T05:28:48.125Z,84.12
2017-04-16T05:29:28.661Z,84.5
2017-04-16T05:30:09.257Z,84.88
2017-04-16T05:30:49.834Z,84.41
2017-04-16T05:31:31.418Z,84.41
2017-04-16T05:32:11.972Z,84.88
2017-04-16T05:32:52.510Z,84.12
2017-04-16T05:33:33.065Z,84.22
2017-04-16T05:34:13.629Z,84.31
2017-04-16T05:35:00.746Z,84.22
2017-04-16T05:35:43.324Z,84.41
2017-04-16T05:36:23.882Z,84.41
2017-04-16T05:37:05.471Z,84.41
2017-04-16T05:37:46.098Z,84.03
2017-04-16T05:38:27.680Z,84.22
2017-04-16T05:39:08.356Z,84.12
2017-04-16T05:39:48.873Z,84.03
2017-04-16T05:40:29.445Z,84.03
2017-04-16T05:41:11.029Z,84.22
2017-04-16T05:41:51.652Z,84.12
2017-04-16T05:42:32.209Z,84.12
2017-04-16T05:43:12.759Z,84.03
2017-04-16T05:43:53.480Z,84.22
2017-04-16T05:44:36.061Z,84.22
2017-04-16T05:45:16.586Z,84.03
2017-04-16T05:45:57.235Z,83.94
2017-04-16T05:46:37.750Z,83.55
2017-04-16T05:47:18.260Z,83.59
2017-04-16T05:47:58.844Z,83.69
2017-04-16T05:48:40.447Z,83.65
2017-04-16T05:49:21.051Z,83.78
2017-04-16T05:50:01.585Z,83.59
2017-04-16T05:50:42.155Z,83.5
2017-04-16T05:51:22.732Z,83.59
2017-04-16T05:52:03.350Z,83.5
2017-04-16T05:52:45.983Z,83.59
2017-04-16T05:53:26.581Z,83.59
2017-04-16T05:54:07.098Z,83.4
2017-04-16T05:54:48.647Z,83.88
2017-04-16T05:55:29.248Z,83.88
2017-04-16T05:56:10.836Z,83.88
2017-04-16T05:56:51.396Z,83.03
2017-04-16T05:57:33.008Z,83.12
2017-04-16T05:58:13.607Z,83.31
2017-04-16T05:58:54.143Z,83.22
2017-04-16T05:59:39.629Z,83.31
2017-04-16T06:00:20.163Z,83.31
2017-04-16T06:01:01.421Z,83.22
2017-04-16T06:01:42.026Z,83.31
2017-04-16T06:02:22.543Z,83.03
2017-04-16T06:03:03.115Z,83.5
2017-04-16T06:03:43.715Z,83.31
2017-04-16T06:04:25.346Z,83.59
2017-04-16T06:05:05.866Z,83.5
2017-04-16T06:05:46.443Z,83.69
2017-04-16T06:06:26.963Z,83.22
2017-04-16T06:07:07.575Z,83.22
2017-04-16T06:07:48.094Z,83.22
2017-04-16T06:08:29.701Z,83.03
2017-04-16T06:09:11.235Z,83.22
2017-04-16T06:09:51.818Z,83.31
2017-04-16T06:10:32.341Z,83.03
2017-04-16T06:11:12.949Z,83.03
2017-04-16T06:11:53.569Z,83.4
2017-04-16T06:12:34.074Z,83.4
2017-04-16T06:13:14.660Z,83.22
2017-04-16T06:13:55.241Z,83.12
2017-04-16T06:14:35.844Z,82.84
2017-04-16T06:15:16.402Z,83.16
2017-04-16T06:15:58.991Z,82.59
2017-04-16T06:16:39.550Z,82.69
2017-04-16T06:17:20.093Z,82.74
2017-04-16T06:18:00.708Z,82.74
2017-04-16T06:18:41.344Z,82.55
2017-04-16T06:19:21.866Z,82.88
2017-04-16T06:20:02.461Z,82.69
2017-04-16T06:20:44.081Z,82.78
2017-04-16T06:21:24.612Z,82.59
2017-04-16T06:22:05.251Z,82.59
2017-04-16T06:22:45.885Z,82.4
2017-04-16T06:23:27.512Z,82.5
2017-04-16T06:24:08.098Z,82.5
2017-04-16T06:24:48.631Z,82.59
2017-04-16T06:25:29.220Z,82.78
2017-04-16T06:26:09.823Z,82.31
2017-04-16T06:26:50.429Z,82.21
2017-04-16T06:27:30.954Z,82.5
2017-04-16T06:28:11.602Z,82.31
2017-04-16T06:29:02.717Z,82.5
2017-04-16T06:29:50.242Z,82.21
2017-04-16T06:30:30.794Z,82.59
2017-04-16T06:31:11.331Z,82.31
2017-04-16T06:31:51.881Z,82.78
2017-04-16T06:32:32.447Z,82.59
2017-04-16T06:33:13.920Z,82.4
2017-04-16T06:33:55.626Z,82.12
2017-04-16T06:34:37.206Z,82.21
2017-04-16T06:35:17.710Z,82.21
2017-04-16T06:35:58.327Z,82.31
2017-04-16T06:36:38.917Z,82.4
2017-04-16T06:37:19.512Z,82.4
2017-04-16T06:38:00.035Z,82.12
2017-04-16T06:38:40.622Z,82.4
2017-04-16T06:39:21.166Z,82.21
2017-04-16T06:40:01.685Z,82.4
2017-04-16T06:40:42.297Z,82.21
2017-04-16T06:41:22.920Z,82.03
2017-04-16T06:42:03.434Z,82.59
2017-04-16T06:42:44.021Z,81.84
2017-04-16T06:43:25.397Z,81.74
2017-04-16T06:44:06.905Z,81.93
2017-04-16T06:44:47.514Z,82.03
2017-04-16T06:45:28.024Z,82.12
2017-04-16T06:46:09.553Z,82.21
2017-04-16T06:46:50.147Z,82.12
2017-04-16T06:47:30.668Z,81.93
2017-04-16T06:48:11.174Z,82.03
2017-04-16T06:48:51.800Z,82.12
2017-04-16T06:49:37.104Z,81.78
2017-04-16T06:50:17.621Z,81.68
2017-04-16T06:50:58.226Z,81.68
2017-04-16T06:51:38.810Z,81.78
2017-04-16T06:52:19.405Z,81.78
2017-04-16T06:52:59.925Z,81.4
2017-04-16T06:53:40.609Z,81.59
2017-04-16T06:54:21.216Z,81.3
2017-04-16T06:55:02.751Z,81.4
2017-04-16T06:55:43.321Z,81.59
2017-04-16T06:56:23.876Z,81.4
2017-04-16T06:57:04.430Z,81.02
2017-04-16T06:57:45.080Z,81.12
2017-04-16T06:58:25.602Z,81.12
2017-04-16T06:59:06.145Z,81.02
2017-04-16T06:59:46.764Z,81.21
2017-04-16T07:00:27.348Z,80.83
2017-04-16T07:01:07.880Z,80.93
2017-04-16T07:01:48.396Z,80.83
2017-04-16T07:02:28.957Z,81.12
2017-04-16T07:03:09.479Z,81.12
2017-04-16T07:03:50.110Z,81.02
2017-04-16T07:04:30.613Z,80.55
2017-04-16T07:05:11.243Z,80.64
2017-04-16T07:05:51.817Z,80.55
2017-04-16T07:06:32.339Z,80.55
2017-04-16T07:07:12.907Z,80.83
2017-04-16T07:07:53.437Z,80.74
2017-04-16T07:08:34.081Z,80.83
2017-04-16T07:09:14.675Z,80.93
2017-04-16T07:09:56.287Z,80.64
2017-04-16T07:10:36.817Z,80.16
2017-04-16T07:11:17.416Z,80.49
2017-04-16T07:11:57.994Z,80.49
2017-04-16T07:12:38.594Z,80.58
2017-04-16T07:13:19.134Z,80.4
2017-04-16T07:13:59.712Z,80.4
2017-04-16T07:14:40.292Z,80.11
2017-04-16T07:15:20.839Z,79.92
2017-04-16T07:16:03.456Z,79.92
2017-04-16T07:16:44.050Z,80.02
2017-04-16T07:17:24.568Z,79.63
2017-04-16T07:18:07.142Z,79.44
2017-04-16T07:18:47.701Z,79.54
2017-04-16T07:19:28.242Z,79.06
2017-04-16T07:20:08.766Z,79.35
2017-04-16T07:20:49.319Z,78.82
2017-04-16T07:21:29.839Z,79.01
2017-04-16T07:22:10.395Z,78.34
2017-04-16T07:22:51.045Z,78.82
2017-04-16T07:23:31.599Z,78.16
2017-04-16T07:24:12.249Z,78.34
2017-04-16T07:24:52.803Z,78.06
2017-04-16T07:25:33.351Z,77.72
2017-04-16T07:26:13.905Z,77.43
2017-04-16T07:26:54.412Z,77.53
2017-04-16T07:27:34.995Z,77.05
2017-04-16T07:28:15.536Z,77.34
2017-04-16T07:28:56.094Z,76.86
2017-04-16T07:29:36.639Z,76.76
2017-04-16T07:30:17.224Z,76.57
2017-04-16T07:30:57.743Z,76.61
2017-04-16T07:31:38.278Z,77
2017-04-16T07:32:18.831Z,76.61
2017-04-16T07:32:59.428Z,76.42
2017-04-16T07:33:39.985Z,76.81
2017-04-16T07:34:20.538Z,76.33
2017-04-16T07:35:01.040Z,76.23
2017-04-16T07:35:41.633Z,76.52
2017-04-16T07:36:22.210Z,76.23
2017-04-16T07:37:02.747Z,76.23
2017-04-16T07:37:45.398Z,76.23
2017-04-16T07:38:25.948Z,76.52
2017-04-16T07:39:06.510Z,76.33
2017-04-16T07:39:47.021Z,75.85
2017-04-16T07:40:27.632Z,75.85
2017-04-16T07:41:08.145Z,75.76
2017-04-16T07:41:48.718Z,75.76
2017-04-16T07:42:29.209Z,75.67
2017-04-16T07:43:09.730Z,75.38
2017-04-16T07:43:50.245Z,75.57
2017-04-16T07:44:30.780Z,75.67
2017-04-16T07:45:11.299Z,75.19
2017-04-16T07:45:52.875Z,75.38
2017-04-16T07:46:33.407Z,74.99
2017-04-16T07:47:13.939Z,75.19
2017-04-16T07:47:54.462Z,75.19
2017-04-16T07:48:34.964Z,74.99
2017-04-16T07:49:15.512Z,75.19
2017-04-16T07:49:56.058Z,74.9
2017-04-16T07:50:37.679Z,74.52
2017-04-16T07:51:18.183Z,74.62
2017-04-16T07:51:58.903Z,75.09
2017-04-16T07:52:40.515Z,74.8
2017-04-16T07:53:21.021Z,74.04
2017-04-16T07:54:06.445Z,74.24
2017-04-16T07:54:47.076Z,74.62
2017-04-16T07:55:27.569Z,74.14
2017-04-16T07:56:08.300Z,73.85
2017-04-16T07:56:48.918Z,73.19
2017-04-16T07:57:29.508Z,73.57
2017-04-16T07:58:12.095Z,73.47
2017-04-16T07:58:52.605Z,73.76
2017-04-16T07:59:33.107Z,73.76
2017-04-16T08:00:14.671Z,73.19
2017-04-16T08:00:55.215Z,73.19
2017-04-16T08:01:35.757Z,73
2017-04-16T08:02:16.301Z,73.19
2017-04-16T08:02:56.954Z,72.9
2017-04-16T08:03:37.493Z,73.1
2017-04-16T08:04:18.113Z,72.85
2017-04-16T08:04:58.633Z,72.62
2017-04-16T08:05:39.265Z,72.08
2017-04-16T08:06:19.761Z,72.42
2017-04-16T08:07:00.300Z,72.33
2017-04-16T08:07:40.805Z,72.24
2017-04-16T08:08:21.462Z,72.08
2017-04-16T08:09:01.987Z,72.17
2017-04-16T08:09:42.587Z,71.51
2017-04-16T08:10:23.209Z,71.7
2017-04-16T08:11:03.717Z,71.7
2017-04-16T08:11:44.321Z,71.32
2017-04-16T08:12:24.863Z,71.32
2017-04-16T08:13:05.390Z,71.13
2017-04-16T08:13:46.009Z,71.03
2017-04-16T08:14:27.648Z,70.94
2017-04-16T08:15:08.147Z,70.56
2017-04-16T08:15:48.769Z,70.56
2017-04-16T08:16:29.355Z,69.99
2017-04-16T08:17:09.927Z,70.37
2017-04-16T08:17:50.500Z,69.7
2017-04-16T08:18:31.029Z,69.99
2017-04-16T08:19:11.618Z,69.42
2017-04-16T08:19:52.167Z,69.79
2017-04-16T08:20:33.767Z,69.79
2017-04-16T08:21:14.382Z,69.7
2017-04-16T08:21:54.892Z,69.13
2017-04-16T08:22:35.507Z,69.13
2017-04-16T08:23:16.082Z,69.42
2017-04-16T08:23:56.651Z,69.23
2017-04-16T08:24:37.253Z,68.94
2017-04-16T08:25:17.771Z,69.32
2017-04-16T08:25:58.283Z,69.42
2017-04-16T08:26:38.900Z,69.32
2017-04-16T08:27:19.425Z,68.84
2017-04-16T08:28:00.971Z,68.94
2017-04-16T08:28:41.475Z,69.23
2017-04-16T08:29:22.061Z,69.13
2017-04-16T08:30:02.679Z,68.65
2017-04-16T08:30:43.259Z,68.84
2017-04-16T08:31:23.937Z,68.78
2017-04-16T08:32:04.507Z,68.4
2017-04-16T08:32:45.081Z,68.21
2017-04-16T08:33:26.659Z,68.4
2017-04-16T08:34:07.210Z,68.69
2017-04-16T08:34:47.743Z,68.12
2017-04-16T08:35:28.285Z,68.21
2017-04-16T08:36:08.824Z,67.64
2017-04-16T08:36:49.412Z,68.02
2017-04-16T08:37:29.944Z,67.93
2017-04-16T08:38:10.452Z,67.93
2017-04-16T08:38:51.085Z,67.93
2017-04-16T08:39:31.696Z,67.74
2017-04-16T08:40:12.291Z,67.74
2017-04-16T08:40:52.898Z,67.93
2017-04-16T08:41:33.441Z,67.83
2017-04-16T08:42:14.002Z,67.93
2017-04-16T08:42:54.619Z,67.93
2017-04-16T08:43:35.199Z,67.64
2017-04-16T08:44:15.735Z,67.64
2017-04-16T08:44:56.318Z,67.74
2017-04-16T08:45:37.880Z,67.93
2017-04-16T08:46:20.195Z,67.83